createdAt,value
2019-03-26T00:01:21.608Z,5.07
2019-03-26T00:04:27.478Z,3.13
2019-03-26T00:07:34.023Z,4.33
2019-03-26T00:10:39.905Z,6.10
2019-03-26T00:13:45.830Z,2.83
2019-03-26T00:16:51.732Z,3.27
2019-03-26T00:19:57.612Z,5.43
2019-03-26T00:23:03.528Z,3.93
2019-03-26T00:26:09.448Z,6.90
2019-03-26T00:29:15.352Z,3.40
2019-03-26T00:32:23.516Z,3.57
2019-03-26T00:35:28.881Z,4.10
2019-03-26T00:38:34.840Z,7.60
2019-03-26T00:41:40.832Z,4.10
2019-03-26T00:44:46.705Z,3.17
2019-03-26T00:47:52.615Z,3.70
2019-03-26T00:50:58.523Z,3.00
2019-03-26T00:54:04.403Z,3.33
2019-03-26T00:57:10.285Z,3.60
2019-03-26T01:00:18.572Z,3.33
2019-03-26T01:03:24.480Z,4.60
2019-03-26T01:06:30.386Z,5.50
2019-03-26T01:09:36.266Z,3.40
2019-03-26T01:12:42.205Z,3.20
2019-03-26T01:15:48.080Z,3.90
2019-03-26T01:18:53.960Z,3.93
2019-03-26T01:21:59.860Z,3.47
2019-03-26T01:25:05.927Z,3.50
2019-03-26T01:28:11.864Z,6.93
2019-03-26T01:31:17.723Z,7.23
2019-03-26T01:34:23.612Z,5.77
2019-03-26T01:37:29.512Z,7.00
2019-03-26T01:40:35.385Z,5.37
2019-03-26T01:43:41.275Z,4.33
2019-03-26T01:46:47.184Z,3.77
2019-03-26T01:49:53.030Z,5.53
2019-03-26T01:52:58.914Z,4.00
2019-03-26T01:56:04.796Z,4.13
2019-03-26T01:59:10.675Z,7.63
2019-03-26T02:02:16.682Z,7.40
2019-03-26T02:05:22.554Z,4.43
2019-03-26T02:08:28.442Z,5.03
2019-03-26T02:11:34.326Z,4.60
2019-03-26T02:14:40.209Z,4.37
2019-03-26T02:17:46.098Z,4.90
2019-03-26T02:20:51.987Z,4.10
2019-03-26T02:23:57.881Z,5.87
2019-03-26T02:27:03.772Z,4.10
2019-03-26T02:30:09.618Z,4.67
2019-03-26T02:33:15.495Z,4.43
2019-03-26T02:36:21.359Z,4.27
2019-03-26T02:39:27.289Z,5.17
2019-03-26T02:42:33.227Z,4.13
2019-03-26T02:45:39.111Z,5.57
2019-03-26T02:48:44.995Z,4.30
2019-03-26T02:51:50.848Z,5.23
2019-03-26T02:54:56.718Z,5.40
2019-03-26T02:58:02.608Z,4.73
2019-03-26T03:01:08.467Z,5.70
2019-03-26T03:04:14.356Z,5.07
2019-03-26T03:07:20.036Z,5.87
2019-03-26T03:10:25.767Z,4.83
2019-03-26T03:13:31.369Z,5.67
2019-03-26T03:16:36.952Z,4.10
2019-03-26T03:19:42.486Z,4.90
2019-03-26T03:22:48.054Z,5.27
2019-03-26T03:25:53.735Z,7.40
2019-03-26T03:28:59.399Z,5.83
2019-03-26T03:32:05.073Z,5.80
2019-03-26T03:35:10.739Z,6.70
2019-03-26T03:38:16.259Z,5.17
2019-03-26T03:41:21.818Z,6.63
2019-03-26T03:44:27.417Z,6.47
2019-03-26T03:47:34.023Z,6.63
2019-03-26T03:50:40.393Z,7.40
2019-03-26T03:53:46.308Z,6.80
2019-03-26T03:56:55.591Z,7.37
2019-03-26T04:00:02.961Z,6.40
2019-03-26T04:03:10.045Z,7.17
2019-03-26T04:06:15.865Z,6.37
2019-03-26T04:09:21.475Z,5.80
2019-03-26T04:12:27.048Z,7.40
2019-03-26T04:15:34.779Z,7.00
2019-03-26T04:18:39.899Z,6.20
2019-03-26T04:21:45.485Z,7.17
2019-03-26T04:24:51.149Z,7.27
2019-03-26T04:27:56.768Z,7.53
2019-03-26T04:31:02.257Z,7.20
2019-03-26T04:34:07.827Z,7.20
2019-03-26T04:37:13.302Z,9.33
2019-03-26T04:40:18.800Z,9.60
2019-03-26T04:43:24.353Z,7.33
2019-03-26T04:46:29.910Z,9.70
2019-03-26T04:49:35.578Z,8.27
2019-03-26T04:52:41.218Z,9.33
2019-03-26T04:55:46.710Z,7.63
2019-03-26T04:58:52.267Z,8.37
2019-03-26T05:01:57.787Z,8.23
2019-03-26T05:05:03.364Z,10.20
2019-03-26T05:08:08.951Z,11.10
2019-03-26T05:11:14.663Z,10.20
2019-03-26T05:14:20.167Z,7.83
2019-03-26T05:17:25.739Z,8.50
2019-03-26T05:20:31.384Z,8.30
2019-03-26T05:23:37.040Z,10.00
2019-03-26T05:26:42.754Z,9.93
2019-03-26T05:29:48.352Z,8.90
2019-03-26T05:32:54.000Z,9.90
2019-03-26T05:35:59.657Z,10.30
2019-03-26T05:39:06.585Z,10.10
2019-03-26T05:42:12.082Z,10.37
2019-03-26T05:45:17.668Z,9.27
2019-03-26T05:48:23.168Z,10.93
2019-03-26T05:51:28.692Z,9.50
2019-03-26T05:54:34.179Z,9.97
2019-03-26T05:57:39.768Z,11.67
2019-03-26T06:00:45.431Z,13.27
2019-03-26T06:03:51.013Z,9.63
2019-03-26T06:07:04.805Z,13.37
2019-03-26T06:10:04.480Z,12.30
2019-03-26T06:13:10.146Z,12.23
2019-03-26T06:16:15.727Z,12.40
2019-03-26T06:19:21.370Z,10.07
2019-03-26T06:22:26.953Z,11.00
2019-03-26T06:25:32.624Z,10.47
2019-03-26T06:28:38.291Z,11.77
2019-03-26T06:31:43.923Z,9.73
2019-03-26T06:34:49.566Z,12.03
2019-03-26T06:37:55.082Z,9.60
2019-03-26T06:41:00.574Z,10.90
2019-03-26T06:44:06.222Z,9.90
2019-03-26T06:47:11.864Z,10.63
2019-03-26T06:50:18.027Z,11.27
2019-03-26T06:53:23.607Z,10.03
2019-03-26T06:56:29.357Z,11.47
2019-03-26T06:59:34.934Z,13.70
2019-03-26T07:02:40.679Z,11.83
2019-03-26T07:05:46.175Z,14.63
2019-03-26T07:08:51.694Z,12.47
2019-03-26T07:11:57.286Z,12.47
2019-03-26T07:15:03.621Z,13.80
2019-03-26T07:18:09.300Z,17.13
2019-03-26T07:21:14.862Z,14.37
2019-03-26T07:24:20.519Z,15.50
2019-03-26T07:27:26.208Z,23.03
2019-03-26T07:30:42.267Z,13.27
2019-03-26T07:33:47.879Z,14.40
2019-03-26T07:36:53.439Z,17.10
2019-03-26T07:39:58.944Z,15.63
2019-03-26T07:43:04.911Z,14.13
2019-03-26T07:46:10.572Z,13.03
2019-03-26T07:49:16.129Z,13.47
2019-03-26T07:52:21.725Z,18.30
2019-03-26T07:55:27.226Z,16.33
2019-03-26T07:58:33.473Z,16.53
2019-03-26T08:01:39.721Z,17.00
2019-03-26T08:04:45.355Z,13.73
2019-03-26T08:07:58.101Z,12.03
2019-03-26T08:10:58.201Z,13.13
2019-03-26T08:14:04.490Z,12.87
2019-03-26T08:17:10.182Z,13.10
2019-03-26T08:20:16.266Z,15.30
2019-03-26T08:23:22.044Z,12.40
2019-03-26T08:26:29.419Z,12.40
2019-03-26T08:29:35.002Z,11.90
2019-03-26T08:32:40.775Z,9.37
2019-03-26T08:35:46.503Z,9.83
2019-03-26T08:38:52.963Z,12.73
2019-03-26T08:41:58.741Z,9.90
2019-03-26T08:45:04.761Z,11.43
2019-03-26T08:48:10.414Z,11.63
2019-03-26T08:51:15.890Z,5.87
2019-03-26T08:54:21.531Z,7.53
2019-03-26T08:57:27.098Z,4.10
2019-03-26T09:00:32.710Z,4.40
2019-03-26T09:03:38.295Z,6.30
2019-03-26T09:06:43.834Z,5.07
2019-03-26T09:09:49.419Z,6.87
2019-03-26T09:12:54.895Z,7.50
2019-03-26T09:16:00.581Z,11.50
2019-03-26T09:19:06.142Z,8.53
2019-03-26T09:22:11.652Z,5.77
2019-03-26T09:25:17.318Z,8.20
2019-03-26T09:28:22.957Z,7.33
2019-03-26T09:31:28.522Z,7.73
2019-03-26T09:34:34.143Z,18.53
2019-03-26T09:37:39.641Z,7.97
2019-03-26T09:40:45.186Z,8.10
2019-03-26T09:43:50.830Z,8.23
2019-03-26T09:46:56.498Z,13.13
2019-03-26T09:50:02.211Z,10.00
2019-03-26T09:53:07.791Z,7.13
2019-03-26T09:56:13.356Z,8.77
2019-03-26T09:59:18.919Z,5.80
2019-03-26T10:02:24.559Z,9.03
2019-03-26T10:05:30.207Z,8.90
2019-03-26T10:08:35.767Z,6.90
2019-03-26T10:11:41.327Z,12.20
2019-03-26T10:14:46.890Z,9.00
2019-03-26T10:17:52.465Z,15.10
2019-03-26T10:20:58.023Z,6.87
2019-03-26T10:24:03.694Z,8.43
2019-03-26T10:27:09.238Z,7.47
2019-03-26T10:30:17.215Z,7.13
2019-03-26T10:33:22.883Z,8.53
2019-03-26T10:36:28.531Z,8.30
2019-03-26T10:39:34.048Z,10.67
2019-03-26T10:42:39.531Z,8.10
2019-03-26T10:45:45.017Z,8.77
2019-03-26T10:48:50.572Z,22.27
2019-03-26T10:51:56.224Z,8.30
2019-03-26T10:55:01.800Z,7.33
2019-03-26T10:58:07.419Z,8.17
2019-03-26T11:01:13.010Z,6.33
2019-03-26T11:04:18.634Z,6.70
2019-03-26T11:07:24.306Z,7.40
2019-03-26T11:10:29.874Z,9.90
2019-03-26T11:13:36.142Z,8.10
2019-03-26T11:16:41.790Z,7.43
2019-03-26T11:19:47.335Z,7.00
2019-03-26T11:22:52.980Z,6.83
2019-03-26T11:25:58.615Z,8.10
2019-03-26T11:29:04.375Z,6.77
2019-03-26T11:32:10.110Z,6.57
2019-03-26T11:35:15.844Z,6.07
2019-03-26T11:38:21.498Z,6.33
2019-03-26T11:41:27.062Z,7.40
2019-03-26T11:44:34.883Z,8.90
2019-03-26T11:47:40.606Z,6.80
2019-03-26T11:50:46.199Z,7.17
2019-03-26T11:53:51.778Z,7.20
2019-03-26T11:56:57.338Z,5.13
2019-03-26T12:00:03.168Z,7.60
2019-03-26T12:03:08.750Z,9.73
2019-03-26T12:06:14.402Z,4.93
2019-03-26T12:09:20.043Z,5.17
2019-03-26T12:12:25.536Z,6.93
2019-03-26T12:15:31.116Z,8.47
2019-03-26T12:18:36.670Z,5.33
2019-03-26T12:21:42.248Z,5.30
2019-03-26T12:24:47.883Z,5.10
2019-03-26T12:27:53.549Z,5.00
2019-03-26T12:30:59.059Z,5.40
2019-03-26T12:34:04.820Z,4.33
2019-03-26T12:37:10.473Z,4.63
2019-03-26T12:40:16.023Z,4.87
2019-03-26T12:43:21.675Z,5.00
2019-03-26T12:46:27.316Z,4.93
2019-03-26T12:49:32.883Z,3.97
2019-03-26T12:52:38.514Z,4.73
2019-03-26T12:55:44.105Z,4.80
2019-03-26T12:58:49.844Z,4.57
2019-03-26T13:01:55.327Z,4.70
2019-03-26T13:05:00.981Z,7.53
2019-03-26T13:08:06.622Z,5.67
2019-03-26T13:11:12.267Z,4.77
2019-03-26T13:14:17.762Z,4.57
2019-03-26T13:17:23.401Z,5.30
2019-03-26T13:20:28.963Z,4.63
2019-03-26T13:23:34.459Z,8.20
2019-03-26T13:26:40.039Z,5.97
2019-03-26T13:29:45.595Z,6.70
2019-03-26T13:32:51.076Z,6.97
2019-03-26T13:35:56.644Z,7.07
2019-03-26T13:39:02.215Z,5.60
2019-03-26T13:42:07.783Z,5.37
2019-03-26T13:45:13.515Z,5.20
2019-03-26T13:48:19.079Z,7.23
2019-03-26T13:51:24.718Z,4.87
2019-03-26T13:54:30.367Z,4.90
2019-03-26T13:57:36.008Z,6.57
2019-03-26T14:00:43.120Z,7.20
2019-03-26T14:03:49.612Z,5.90
2019-03-26T14:06:55.248Z,6.50
2019-03-26T14:10:00.803Z,8.50
2019-03-26T14:13:06.456Z,5.63
2019-03-26T14:16:12.094Z,6.33
2019-03-26T14:19:17.739Z,7.17
2019-03-26T14:22:23.376Z,12.27
2019-03-26T14:25:29.019Z,7.33
2019-03-26T14:28:34.651Z,6.00
2019-03-26T14:31:40.217Z,6.63
2019-03-26T14:34:50.273Z,5.47
2019-03-26T14:37:53.071Z,5.57
2019-03-26T14:40:58.718Z,5.47
2019-03-26T14:44:04.456Z,6.27
2019-03-26T14:47:10.124Z,9.80
2019-03-26T14:50:15.875Z,7.53
2019-03-26T14:53:21.447Z,5.47
2019-03-26T14:56:27.115Z,5.40
2019-03-26T14:59:32.747Z,6.03
2019-03-26T15:02:38.265Z,6.73
2019-03-26T15:05:43.899Z,6.30
2019-03-26T15:08:49.639Z,6.20
2019-03-26T15:11:55.287Z,7.30
2019-03-26T15:15:00.863Z,7.73
2019-03-26T15:18:06.605Z,8.87
2019-03-26T15:21:12.251Z,10.70
2019-03-26T15:24:17.822Z,10.47
2019-03-26T15:27:23.446Z,8.10
2019-03-26T15:30:29.095Z,8.57
2019-03-26T15:33:34.775Z,12.67
2019-03-26T15:36:40.443Z,8.17
2019-03-26T15:39:46.090Z,7.13
2019-03-26T15:42:52.072Z,9.90
2019-03-26T15:45:57.723Z,8.17
2019-03-26T15:49:03.432Z,7.70
2019-03-26T15:52:09.087Z,11.27
2019-03-26T15:55:14.719Z,9.90
2019-03-26T15:58:20.395Z,8.23
2019-03-26T16:01:25.967Z,7.77
2019-03-26T16:04:31.528Z,7.70
2019-03-26T16:07:37.023Z,8.97
2019-03-26T16:10:42.679Z,11.03
2019-03-26T16:13:48.267Z,6.70
2019-03-26T16:16:53.968Z,13.83
2019-03-26T16:19:59.620Z,7.73
2019-03-26T16:23:05.278Z,8.70
2019-03-26T16:26:10.781Z,7.57
2019-03-26T16:29:16.497Z,9.00
2019-03-26T16:32:22.143Z,10.40
2019-03-26T16:35:27.788Z,10.17
2019-03-26T16:38:33.519Z,9.53
2019-03-26T16:41:49.096Z,13.90
2019-03-26T16:44:46.361Z,9.93
2019-03-26T16:47:51.939Z,9.00
2019-03-26T16:50:58.462Z,10.77
2019-03-26T16:54:04.123Z,8.37
2019-03-26T16:57:09.783Z,13.40
2019-03-26T17:00:17.313Z,9.53
2019-03-26T17:03:31.307Z,11.23
2019-03-26T17:06:30.279Z,14.60
2019-03-26T17:09:35.858Z,10.53
2019-03-26T17:12:41.415Z,7.90
2019-03-26T17:15:46.979Z,11.67
2019-03-26T17:18:52.629Z,9.60
2019-03-26T17:21:58.184Z,12.33
2019-03-26T17:25:04.072Z,9.37
2019-03-26T17:28:09.562Z,10.60
2019-03-26T17:31:15.221Z,13.90
2019-03-26T17:34:20.740Z,11.40
2019-03-26T17:37:26.390Z,8.17
2019-03-26T17:40:31.964Z,10.00
2019-03-26T17:43:37.616Z,9.27
2019-03-26T17:46:43.203Z,12.93
2019-03-26T17:49:49.116Z,9.20
2019-03-26T17:52:55.155Z,8.30
2019-03-26T17:56:01.007Z,8.77
2019-03-26T17:59:06.808Z,10.70
2019-03-26T18:02:12.620Z,10.30
2019-03-26T18:05:26.793Z,8.07
2019-03-26T18:08:32.603Z,13.53
2019-03-26T18:11:38.499Z,9.93
2019-03-26T18:14:44.071Z,11.43
2019-03-26T18:17:49.730Z,16.00
2019-03-26T18:20:55.644Z,12.60
2019-03-26T18:24:01.381Z,12.67
2019-03-26T18:27:06.952Z,9.83
2019-03-26T18:30:13.239Z,16.13
2019-03-26T18:33:18.884Z,24.73
2019-03-26T18:36:24.468Z,44.47
2019-03-26T18:39:29.978Z,16.33
2019-03-26T18:42:43.835Z,12.37
2019-03-26T18:45:43.028Z,9.20
2019-03-26T18:48:48.607Z,27.57
2019-03-26T18:51:55.546Z,10.83
2019-03-26T18:55:01.316Z,13.27
2019-03-26T18:58:06.948Z,12.20
2019-03-26T19:01:12.584Z,9.47
2019-03-26T19:04:18.236Z,11.17
2019-03-26T19:07:24.990Z,11.30
2019-03-26T19:10:32.402Z,10.87
2019-03-26T19:13:37.964Z,11.50
2019-03-26T19:16:43.896Z,10.03
2019-03-26T19:19:49.465Z,10.73
2019-03-26T19:22:55.123Z,13.33
2019-03-26T19:26:00.712Z,12.87
2019-03-26T19:29:06.314Z,15.50
2019-03-26T19:32:11.886Z,14.90
2019-03-26T19:35:17.550Z,15.53
2019-03-26T19:38:23.227Z,15.07
2019-03-26T19:41:28.727Z,13.70
2019-03-26T19:44:35.013Z,14.10
2019-03-26T19:47:41.064Z,14.57
2019-03-26T19:50:46.739Z,14.70
2019-03-26T19:53:54.565Z,12.30
2019-03-26T19:57:00.152Z,17.37
2019-03-26T20:00:06.641Z,13.27
2019-03-26T20:03:12.287Z,16.40
2019-03-26T20:06:17.898Z,16.53
2019-03-26T20:09:23.419Z,19.00
2019-03-26T20:12:29.078Z,13.40
2019-03-26T20:15:34.749Z,15.37
2019-03-26T20:18:40.390Z,16.50
2019-03-26T20:21:46.066Z,19.30
2019-03-26T20:24:51.742Z,21.07
2019-03-26T20:27:57.443Z,17.53
2019-03-26T20:31:03.048Z,19.63
2019-03-26T20:34:08.695Z,16.00
2019-03-26T20:37:14.260Z,17.53
2019-03-26T20:40:19.907Z,19.87
2019-03-26T20:43:36.693Z,14.00
2019-03-26T20:46:32.840Z,16.30
2019-03-26T20:49:38.515Z,24.80
2019-03-26T20:52:44.173Z,18.17
2019-03-26T20:55:54.490Z,20.40
2019-03-26T20:58:57.641Z,17.90
2019-03-26T21:02:03.328Z,22.10
2019-03-26T21:05:10.703Z,23.30
2019-03-26T21:08:16.363Z,23.37
2019-03-26T21:11:21.859Z,43.37
2019-03-26T21:14:27.447Z,23.30
2019-03-26T21:17:33.107Z,21.77
2019-03-26T21:20:38.814Z,23.43
2019-03-26T21:23:44.527Z,21.07
2019-03-26T21:26:50.422Z,19.83
2019-03-26T21:30:09.797Z,20.80
2019-03-26T21:33:03.614Z,25.63
2019-03-26T21:36:09.917Z,20.77
2019-03-26T21:39:16.113Z,24.27
2019-03-26T21:42:21.933Z,21.80
2019-03-26T21:45:38.627Z,26.27
2019-03-26T21:48:44.206Z,20.30
2019-03-26T21:51:49.907Z,26.60
2019-03-26T21:54:55.560Z,21.23
2019-03-26T21:58:01.318Z,22.30
2019-03-26T22:01:07.022Z,24.63
2019-03-26T22:04:12.694Z,25.23
2019-03-26T22:07:18.260Z,21.70
2019-03-26T22:10:23.973Z,18.97
2019-03-26T22:13:29.558Z,24.33
2019-03-26T22:16:35.208Z,26.27
2019-03-26T22:19:40.868Z,24.80
2019-03-26T22:22:46.471Z,23.60
2019-03-26T22:25:52.197Z,33.10
2019-03-26T22:28:57.903Z,18.33
2019-03-26T22:32:03.570Z,23.00
2019-03-26T22:35:09.500Z,18.37
2019-03-26T22:38:15.059Z,22.60
2019-03-26T22:41:20.723Z,23.73
2019-03-26T22:44:31.660Z,22.80
2019-03-26T22:47:33.557Z,23.97
2019-03-26T22:50:39.137Z,21.60
2019-03-26T22:53:44.629Z,23.47
2019-03-26T22:56:50.192Z,23.27
2019-03-26T22:59:55.699Z,20.13
2019-03-26T23:03:01.423Z,21.00
2019-03-26T23:06:07.096Z,24.00
2019-03-26T23:09:12.599Z,23.03
2019-03-26T23:12:18.336Z,26.17
2019-03-26T23:15:28.172Z,24.03
2019-03-26T23:18:33.820Z,23.67
2019-03-26T23:21:39.471Z,19.97
2019-03-26T23:24:45.098Z,26.20
2019-03-26T23:27:50.699Z,25.67
2019-03-26T23:30:56.346Z,22.13
2019-03-26T23:34:01.939Z,27.90
2019-03-26T23:37:07.606Z,21.73
2019-03-26T23:40:14.047Z,23.63
2019-03-26T23:43:19.642Z,22.00
2019-03-26T23:46:25.216Z,26.60
2019-03-26T23:49:30.953Z,24.03
2019-03-26T23:52:36.611Z,21.93
2019-03-26T23:55:42.188Z,24.97
2019-03-26T23:58:47.863Z,26.80
